Depesze METAR lotnisk w Polsce

METAR – format kodowanego raportu o pogodzie używany w meteorologii lotniczej i prognozie pogody. METAR jest akronimem od ang. Meteorological Aerodrome Report. Typowy METAR zawiera informację o temperaturze, ciśnieniu, temperaturze punktu rosy, sile i kierunku wiatru, opadzie, pokrywie chmur, wysokości podstawy chmur, widzialności, lecz może zawierać też inne informacje (np. stan dróg startowych).

Warszawa-Okęcie (EPWA)

METAR = EPWA 180530Z 24002KT 3400 0350W PRFG BR SCT003 BKN047 M11/M12 Q1039 R88/2///95 TEMPO 0300 FZFG BKN001

STACJA......... EPWA - Warszawa-Okęcie (WAW)
POMIAR......... Wed Jan 18, 06:30 CET
WIATR.......... zachodni południowo-zachodni (WSW) z prędkością 4 km/h
WIDZIALNOŚĆ.... 3400 metrów
WIDZ.KIERUNEK.. w kierunku zachodnim (W) wynosi 350 metrów
WARUNKI........ częściowa mgła  & zamglenie 
CHMURY......... zachmurzenie średnie (5/8-7/8)
TEMPERATURA.... -11°C
T.PUNKTU ROSY.. -12°C
WILGOTNOŚĆ..... 92%
CIŚNIENIE...... 1039 hPa
PAS STARTOWY... wszystkie pasy: woda na pasie, b/d pokrycia pasa, dobra przyczepność hamowania
PROGNOZA....... spodziewana krótkookresowa zmiana (<1h): widzialność poniżej 0300 metrów, opad marznący

Sprawdź też: Prognoza pogody Warszawa

Warszawa-Modlin (EPMO)

METAR = EPMO 180530Z VRB02KT 2000 BR BKN001 M09/M11 Q1039 =

STACJA......... EPMO - Warszawa-Modlin (WMI)
POMIAR......... Wed Jan 18, 06:30 CET
WIATR.......... zmienny z prędkością 4 km/h
WIDZIALNOŚĆ.... 2000 metrów
WARUNKI........ zamglenie 
CHMURY......... zachmurzenie średnie (5/8-7/8)
TEMPERATURA.... -9°C
T.PUNKTU ROSY.. -11°C
WILGOTNOŚĆ..... 86%
CIŚNIENIE...... 1039 hPa

Sprawdź też: Prognoza pogody Nowy Dwór Mazowiecki

Kraków-Balice (EPKK)

METAR = EPKK 180530Z 05009KT 4500 BR SCT003 OVC004 M07/M08 Q1037

STACJA......... EPKK - Kraków-Balice (KRK)
POMIAR......... Wed Jan 18, 06:30 CET
WIATR.......... północno-wschodni (NE) z prędkością 17 km/h
WIDZIALNOŚĆ.... 4500 metrów
WARUNKI........ zamglenie 
CHMURY......... zachmurzenie całkowite (8/8)
TEMPERATURA.... -7°C
T.PUNKTU ROSY.. -8°C
WILGOTNOŚĆ..... 93%
T.ODCZUWALNA... -14°C
CIŚNIENIE...... 1037 hPa

Sprawdź też: Prognoza pogody Kraków

Łódź-Lublinek (EPLL)

METAR = EPLL 180530Z VRB01KT 1600 BR OVC006 M10/M11 Q1038 R25/29//95

STACJA......... EPLL - Łódź-Lublinek (LCJ)
POMIAR......... Wed Jan 18, 06:30 CET
WIATR.......... zmienny z prędkością 2 km/h
WIDZIALNOŚĆ.... 1600 metrów
WARUNKI........ zamglenie 
CHMURY......... zachmurzenie całkowite (8/8)
TEMPERATURA.... -10°C
T.PUNKTU ROSY.. -11°C
WILGOTNOŚĆ..... 92%
CIŚNIENIE...... 1038 hPa
PAS STARTOWY... pas nr 25: woda na pasie na 51-100% pasa, dobra przyczepność hamowania

Sprawdź też: Prognoza pogody Łódź

Wrocław-Strachowice (EPWR)

METAR = EPWR 180530Z 35004KT 1700 BR OVC002 M06/M07 Q1039

STACJA......... EPWR - Wrocław-Strachowice (WRO)
POMIAR......... Wed Jan 18, 06:30 CET
WIATR.......... północny (N) z prędkością 7 km/h
WIDZIALNOŚĆ.... 1700 metrów
WARUNKI........ zamglenie 
CHMURY......... zachmurzenie całkowite (8/8)
TEMPERATURA.... -6°C
T.PUNKTU ROSY.. -7°C
WILGOTNOŚĆ..... 93%
T.ODCZUWALNA... -9°C
CIŚNIENIE...... 1039 hPa

Sprawdź też: Prognoza pogody Wrocław

Katowice-Pyrzowice (EPKT)

METAR = EPKT 180530Z 03007KT 6000 OVC009 M06/M08 Q1036

STACJA......... EPKT - Katowice-Pyrzowice (KTW)
POMIAR......... Wed Jan 18, 06:30 CET
WIATR.......... północno północno-wschodni (NNE) z prędkością 13 km/h
WIDZIALNOŚĆ.... 6000 metrów
CHMURY......... zachmurzenie całkowite (8/8)
TEMPERATURA.... -6°C
T.PUNKTU ROSY.. -8°C
WILGOTNOŚĆ..... 86%
T.ODCZUWALNA... -12°C
CIŚNIENIE...... 1036 hPa

Sprawdź też: Prognoza pogody Katowice

Gdańsk (EPGD)

METAR = EPGD 180530Z 24007KT CAVOK M03/M04 Q1036 R11/290095

STACJA......... EPGD - Gdańsk im. Lecha Wałęsy (GDN)
POMIAR......... Wed Jan 18, 06:30 CET
WIATR.......... zachodni południowo-zachodni (WSW) z prędkością 13 km/h
WIDZIALNOŚĆ.... powyżej 10 kilometrów
CHMURY......... bezchmurne niebo
TEMPERATURA.... -3°C
T.PUNKTU ROSY.. -4°C
WILGOTNOŚĆ..... 93%
T.ODCZUWALNA... -7°C
CIŚNIENIE...... 1036 hPa
PAS STARTOWY... pas nr 11: woda na pasie na 51-100% pasa, mniej niż 1mm, dobra przyczepność hamowania

Sprawdź też: Prognoza pogody Gdańsk

Poznań-Ławica (EPPO)

METAR = EPPO 180530Z VRB02KT 0200 R28/0650 FZFG VV001 M07/M08 Q1040 R10/29//95

STACJA......... EPPO - Poznań-Ławica (POZ)
POMIAR......... Wed Jan 18, 06:30 CET
WIATR.......... zmienny z prędkością 4 km/h
WIDZIALNOŚĆ.... 200 metrów

Sprawdź też: Prognoza pogody Poznań

Rzeszów-Jasionka (EPRZ)

METAR = EPRZ 180530Z 35005KT 5000 BR OVC005 M07/M08 Q1037 R27/71//95

STACJA......... EPRZ - Rzeszów-Jasionka (RZE)
POMIAR......... Wed Jan 18, 06:30 CET
WIATR.......... północny (N) z prędkością 9 km/h
WIDZIALNOŚĆ.... 5000 metrów
WARUNKI........ zamglenie 
CHMURY......... zachmurzenie całkowite (8/8)
TEMPERATURA.... -7°C
T.PUNKTU ROSY.. -8°C
WILGOTNOŚĆ..... 93%
T.ODCZUWALNA... -12°C
CIŚNIENIE...... 1037 hPa
PAS STARTOWY... pas nr 27: lód na mniej niż 10% pasa, dobra przyczepność hamowania

Sprawdź też: Prognoza pogody Rzeszów

Szczecin-Goleniów (EPSC)

METAR = EPSC 180530Z VRB03KT 4000 BR NSC M06/M06 Q1039 R13/71//95

STACJA......... EPSC - Szczecin-Goleniów (SZZ)
POMIAR......... Wed Jan 18, 06:30 CET
WIATR.......... zmienny z prędkością 6 km/h
WIDZIALNOŚĆ.... 4000 metrów
WARUNKI........ zamglenie 
CHMURY......... brak istotnych chmur
TEMPERATURA.... -6°C
T.PUNKTU ROSY.. -6°C
WILGOTNOŚĆ..... 100%
T.ODCZUWALNA... -9°C
CIŚNIENIE...... 1039 hPa
PAS STARTOWY... pas nr 13: lód na mniej niż 10% pasa, dobra przyczepność hamowania

Sprawdź też: Prognoza pogody Szczecin

Lublin-Świdnik (EPLB)

METAR = EPLB 180530Z 09004KT 4500 BR OVC003 M07/M08 Q1038 =

STACJA......... EPLB - Lublin-Świdnik (LUZ)
POMIAR......... Wed Jan 18, 06:30 CET
WIATR.......... wschodni (E) z prędkością 7 km/h
WIDZIALNOŚĆ.... 4500 metrów
WARUNKI........ zamglenie 
CHMURY......... zachmurzenie całkowite (8/8)
TEMPERATURA.... -7°C
T.PUNKTU ROSY.. -8°C
WILGOTNOŚĆ..... 93%
T.ODCZUWALNA... -11°C
CIŚNIENIE...... 1038 hPa

Sprawdź też: Prognoza pogody Lublin

Bydgoszcz-Szwederowo (EPBY)

METAR = EPBY 180530Z 24003KT 200V260 1400 1300E R26/2000N BR OVC002   M08/M09 Q1039 =

STACJA......... EPBY - Bydgoszcz-Szwederowo (BZG)
POMIAR......... Wed Jan 18, 06:30 CET
WIATR.......... zachodni południowo-zachodni (WSW) z prędkością 6 km/h
WIDZIALNOŚĆ.... 1400 metrów
WIDZ.KIERUNEK.. w kierunku wschodnim (E) wynosi 1300 metrów

Sprawdź też: Prognoza pogody Bydgoszcz

Zielona Góra-Babimost (EPZG)

METAR = EPZG 180530Z 00000KT 0150 FZFG OVC001 M05/M05 Q1040 =

STACJA......... EPZG - Zielona Góra-Babimost (IEG)
POMIAR......... Wed Jan 18, 06:30 CET
WIATR.......... bezwietrznie
WIDZIALNOŚĆ.... 150 metrów
WARUNKI........ opad marznący mgła 
CHMURY......... zachmurzenie całkowite (8/8)
TEMPERATURA.... -5°C
T.PUNKTU ROSY.. -5°C
WILGOTNOŚĆ..... 100%
CIŚNIENIE...... 1040 hPa

Sprawdź też: Prognoza pogody Zielona Góra

Szymany Olsztyn-Mazury (EPSY)

METAR = EPSY 180530Z 19002KT 2300 BR BKN007 OVC010 M05/M06 Q1038=

STACJA......... EPSY - Olsztyn-Mazury (SZY)
POMIAR......... Wed Jan 18, 06:30 CET
WIATR.......... południowy (S) z prędkością 4 km/h
WIDZIALNOŚĆ.... 2300 metrów
WARUNKI........ zamglenie 
CHMURY......... zachmurzenie całkowite (8/8)
TEMPERATURA.... -5°C
T.PUNKTU ROSY.. -6°C
WILGOTNOŚĆ..... 93%
CIŚNIENIE...... 1038 hPa

Sprawdź też: Prognoza pogody Olsztyn